Time;durP1;ratioP1;P1;durP2;ratioP2;P2;SDS_P1;SDS_P2;PMS_P1;PMS_P2;Temp;Humidity;BMP_temperature;BMP_pressure;BME280_temperature;BME280_humidity;BME280_pressure;Samples;Min_cycle;Max_cycle;Signal;HPM_P1;HPM_P2
2022/12/11 00:00:42;;;;;;;;;;;23.00;99.90;;;;;;5047630;28;19924;-70
2022/12/11 00:03:09;;;;;;;;;;;23.00;99.90;;;;;;5046274;28;19913;-70
2022/12/11 00:05:38;;;;;;;;;;;22.90;99.90;;;;;;5046721;28;19917;-69
2022/12/11 00:08:04;;;;;;;;;;;23.00;99.90;;;;;;5046530;28;20000;-69
2022/12/11 00:10:31;;;;;;;;;;;23.30;99.90;;;;;;5046936;28;19979;-71
2022/12/11 00:12:58;;;;;;;;;;;23.40;99.90;;;;;;5045174;28;20533;-70
2022/12/11 00:15:24;;;;;;;;;;;23.40;99.90;;;;;;5047018;28;19932;-69
2022/12/11 00:17:51;;;;;;;;;;;23.40;99.90;;;;;;5045827;28;19912;-70
2022/12/11 00:20:18;;;;;;;;;;;23.50;99.90;;;;;;5046990;28;19924;-65
2022/12/11 00:22:45;;;;;;;;;;;23.50;99.90;;;;;;5046286;28;19913;-65
2022/12/11 00:25:12;;;;;;;;;;;23.40;99.90;;;;;;5046992;28;20327;-67
2022/12/11 00:27:39;;;;;;;;;;;23.40;99.90;;;;;;5045535;28;20355;-68
2022/12/11 00:30:06;;;;;;;;;;;23.50;99.90;;;;;;5046075;28;19916;-65
2022/12/11 00:32:33;;;;;;;;;;;23.60;99.90;;;;;;5046439;28;19973;-65
2022/12/11 00:35:00;;;;;;;;;;;23.70;99.90;;;;;;5045755;28;19939;-66
2022/12/11 00:37:28;;;;;;;;;;;23.80;99.90;;;;;;5060869;28;19925;-65
2022/12/11 00:39:55;;;;;;;;;;;24.00;99.90;;;;;;5046426;28;19912;-66
2022/12/11 00:42:22;;;;;;;;;;;24.10;99.90;;;;;;5045106;28;19913;-66
2022/12/11 00:44:49;;;;;;;;;;;24.20;99.90;;;;;;5046392;28;20409;-65
2022/12/11 00:47:16;;;;;;;;;;;24.30;99.90;;;;;;5045678;28;19917;-68
2022/12/11 00:49:43;;;;;;;;;;;24.50;99.90;;;;;;5046662;28;19977;-67
2022/12/11 00:52:09;;;;;;;;;;;25.00;99.90;;;;;;5045592;28;19912;-68
2022/12/11 00:54:36;;;;;;;;;;;25.80;99.90;;;;;;5046281;28;19994;-68
2022/12/11 00:57:03;;;;;;;;;;;26.30;99.90;;;;;;5027437;28;20549;-66
2022/12/11 00:59:29;;;;;;;;;;;26.80;99.90;;;;;;5045738;28;19917;-70
2022/12/11 01:01:56;;;;;;;;;;;27.30;99.90;;;;;;5046370;28;20026;-71
2022/12/11 01:04:23;;;;;;;;;;;27.40;99.90;;;;;;5045739;28;19917;-66
2022/12/11 01:06:50;;;;;;;;;;;27.40;99.90;;;;;;5045007;28;20573;-69
2022/12/11 01:12:01;;;;;;;;;;;28.00;99.90;;;;;;5046040;28;19967;-70
2022/12/11 01:14:28;;;;;;;;;;;27.90;99.90;;;;;;5045166;28;20260;-66
2022/12/11 01:16:54;;;;;;;;;;;27.80;99.90;;;;;;5045714;28;19967;-67
2022/12/11 01:19:21;;;;;;;;;;;28.20;99.90;;;;;;5045437;28;19924;-66
2022/12/11 01:21:48;;;;;;;;;;;28.40;99.90;;;;;;5044810;28;19955;-69
2022/12/11 01:24:14;;;;;;;;;;;28.30;99.90;;;;;;5045343;28;19913;-65
2022/12/11 01:26:41;;;;;;;;;;;28.40;99.80;;;;;;5044743;28;19951;-71
2022/12/11 01:29:08;;;;;;;;;;;28.40;99.90;;;;;;5036125;28;19916;-71
2022/12/11 01:31:35;;;;;;;;;;;28.50;99.60;;;;;;5045899;28;20373;-69
2022/12/11 01:34:01;;;;;;;;;;;28.60;99.30;;;;;;5043663;28;20020;-69
2022/12/11 01:36:28;;;;;;;;;;;28.60;99.50;;;;;;5044582;28;20042;-69
2022/12/11 01:38:55;;;;;;;;;;;28.70;99.50;;;;;;5045098;28;19948;-69
2022/12/11 01:41:22;;;;;;;;;;;28.50;99.20;;;;;;5044719;28;19923;-68
2022/12/11 01:43:59;;;;;;;;;;;28.20;99.50;;;;;;5045755;28;20371;-70
2022/12/11 01:46:26;;;;;;;;;;;27.70;99.90;;;;;;5044443;28;20030;-66
2022/12/11 01:48:53;;;;;;;;;;;27.00;99.90;;;;;;5044722;28;20327;-68
2022/12/11 01:51:20;;;;;;;;;;;26.70;99.90;;;;;;5044788;28;19916;-64
2022/12/11 01:53:49;;;;;;;;;;;26.20;99.90;;;;;;5045272;28;19971;-70
2022/12/11 01:56:16;;;;;;;;;;;25.80;99.90;;;;;;5044615;28;19986;-74
2022/12/11 01:58:45;;;;;;;;;;;25.60;99.90;;;;;;5044928;28;20300;-71
2022/12/11 02:01:17;;;;;;;;;;;25.50;99.90;;;;;;5044054;28;20402;-71
2022/12/11 02:03:44;;;;;;;;;;;25.60;99.90;;;;;;5044019;28;19917;-70
2022/12/11 02:06:28;;;;;;;;;;;25.50;99.90;;;;;;5052981;28;19912;-70
2022/12/11 02:08:55;;;;;;;;;;;25.50;99.90;;;;;;5053387;28;19908;-71
2022/12/11 02:11:25;;;;;;;;;;;25.20;99.90;;;;;;5052818;28;20383;-70
2022/12/11 02:13:56;;;;;;;;;;;25.20;99.90;;;;;;5051747;28;19952;-69
2022/12/11 02:16:23;;;;;;;;;;;25.30;99.90;;;;;;5053575;28;20003;-70
2022/12/11 02:19:28;;;;;;;;;;;25.30;99.90;;;;;;5052406;28;19916;-71
2022/12/11 02:21:56;;;;;;;;;;;25.40;99.90;;;;;;4972572;28;19918;-72
2022/12/11 02:24:40;;;;;;;;;;;25.40;99.90;;;;;;4971304;28;19920;-69
2022/12/11 02:27:07;;;;;;;;;;;25.40;99.90;;;;;;5020606;28;19963;-71
2022/12/11 02:29:48;;;;;;;;;;;25.40;99.90;;;;;;5053289;28;19909;-71
2022/12/11 02:32:24;;;;;;;;;;;25.40;99.90;;;;;;5052406;28;20370;-72
2022/12/11 02:34:56;;;;;;;;;;;25.20;99.90;;;;;;5053134;28;19909;-69
2022/12/11 02:37:26;;;;;;;;;;;25.10;99.90;;;;;;5052297;28;20007;-69
2022/12/11 02:39:53;;;;;;;;;;;25.20;99.90;;;;;;5053343;28;19995;-71
2022/12/11 02:42:21;;;;;;;;;;;25.20;99.90;;;;;;5051307;28;19966;-72
2022/12/11 02:44:50;;;;;;;;;;;25.20;99.90;;;;;;5052858;28;19916;-71
2022/12/11 02:47:18;;;;;;;;;;;25.30;99.90;;;;;;5052113;28;20016;-70
2022/12/11 02:49:46;;;;;;;;;;;25.20;99.90;;;;;;5053106;28;20303;-71
2022/12/11 02:52:15;;;;;;;;;;;25.10;99.90;;;;;;5051778;28;19913;-69
2022/12/11 02:54:43;;;;;;;;;;;25.00;99.90;;;;;;5052703;28;19922;-71
2022/12/11 02:57:10;;;;;;;;;;;25.00;99.90;;;;;;5052553;28;19925;-72
2022/12/11 02:59:38;;;;;;;;;;;24.90;99.90;;;;;;5052375;28;20386;-70
2022/12/11 03:02:05;;;;;;;;;;;24.80;99.90;;;;;;5053088;28;19909;-71
2022/12/11 03:04:33;;;;;;;;;;;24.70;99.90;;;;;;5052087;28;19913;-71
2022/12/11 03:07:10;;;;;;;;;;;24.70;99.90;;;;;;5051523;28;20006;-71
2022/12/11 03:09:38;;;;;;;;;;;24.80;99.90;;;;;;5043417;28;19924;-72
2022/12/11 03:12:07;;;;;;;;;;;24.60;99.90;;;;;;5048290;28;19975;-69
2022/12/11 03:14:34;;;;;;;;;;;24.50;99.90;;;;;;5040711;28;19913;-71
2022/12/11 03:17:08;;;;;;;;;;;24.60;99.90;;;;;;5052524;28;19924;-70
2022/12/11 03:19:36;;;;;;;;;;;24.60;99.90;;;;;;5052061;28;19959;-72
2022/12/11 03:22:16;;;;;;;;;;;24.70;99.90;;;;;;5051865;28;19913;-71
2022/12/11 03:24:49;;;;;;;;;;;24.80;99.90;;;;;;5052768;28;19909;-71
2022/12/11 03:27:27;;;;;;;;;;;24.70;99.90;;;;;;5052073;28;19917;-69
2022/12/11 03:29:59;;;;;;;;;;;24.60;99.90;;;;;;5052742;28;20264;-71
2022/12/11 03:32:29;;;;;;;;;;;24.80;99.90;;;;;;5054127;28;19913;-70
2022/12/11 03:35:15;;;;;;;;;;;24.80;99.90;;;;;;5036411;28;19909;-72
2022/12/11 03:37:44;;;;;;;;;;;24.80;99.90;;;;;;5053686;28;19921;-72
2022/12/11 03:40:12;;;;;;;;;;;25.00;99.90;;;;;;5056497;28;20437;-71
2022/12/11 03:42:39;;;;;;;;;;;25.00;99.90;;;;;;5055730;28;20007;-70
2022/12/11 03:45:07;;;;;;;;;;;25.10;99.90;;;;;;5056165;28;19909;-72
2022/12/11 03:47:34;;;;;;;;;;;25.20;99.90;;;;;;5053512;28;19920;-69
2022/12/11 03:50:02;;;;;;;;;;;25.20;99.90;;;;;;5056117;28;19916;-70
2022/12/11 03:52:31;;;;;;;;;;;25.30;99.90;;;;;;5055244;28;19920;-70
2022/12/11 03:55:00;;;;;;;;;;;25.30;99.90;;;;;;5055983;28;20260;-70
2022/12/11 03:57:29;;;;;;;;;;;25.20;99.90;;;;;;5055190;28;19925;-66
2022/12/11 03:59:56;;;;;;;;;;;25.20;99.90;;;;;;5054950;28;19913;-67
2022/12/11 04:02:22;;;;;;;;;;;25.20;99.90;;;;;;5055551;28;19916;-72
2022/12/11 04:04:49;;;;;;;;;;;25.30;99.90;;;;;;5055870;28;19920;-67
2022/12/11 04:07:16;;;;;;;;;;;25.20;99.90;;;;;;5054831;28;19920;-72
2022/12/11 04:09:43;;;;;;;;;;;25.20;99.90;;;;;;5055919;28;19909;-72
2022/12/11 04:12:09;;;;;;;;;;;25.10;99.90;;;;;;5055088;28;19913;-72
2022/12/11 04:25:35;;;;;;;;;;;25.10;99.90;;;;;;5056039;28;20332;-70
2022/12/11 04:28:02;;;;;;;;;;;25.00;99.90;;;;;;5054262;28;20347;-69
2022/12/11 04:30:28;;;;;;;;;;;25.10;99.90;;;;;;5055265;28;19909;-69
2022/12/11 04:32:55;;;;;;;;;;;24.90;99.90;;;;;;5053202;28;19917;-71
2022/12/11 04:35:22;;;;;;;;;;;24.80;99.90;;;;;;5055212;28;19909;-70
2022/12/11 04:37:49;;;;;;;;;;;24.80;99.90;;;;;;5054375;28;19967;-71
2022/12/11 04:40:16;;;;;;;;;;;24.80;99.90;;;;;;5055193;28;19909;-72
2022/12/11 04:42:43;;;;;;;;;;;24.70;99.90;;;;;;5052829;28;19995;-67
2022/12/11 04:45:10;;;;;;;;;;;24.70;99.90;;;;;;5049172;28;19914;-71
2022/12/11 04:47:38;;;;;;;;;;;24.60;99.90;;;;;;5035217;28;19917;-71
2022/12/11 04:50:06;;;;;;;;;;;24.70;99.90;;;;;;5039208;28;19913;-72
2022/12/11 04:52:32;;;;;;;;;;;24.80;99.90;;;;;;5045324;28;19920;-72
2022/12/11 04:54:59;;;;;;;;;;;24.70;99.90;;;;;;5034999;28;20455;-71
2022/12/11 04:57:26;;;;;;;;;;;24.60;99.90;;;;;;5041193;28;20287;-70
2022/12/11 04:59:52;;;;;;;;;;;24.50;99.90;;;;;;5054026;28;19913;-70
2022/12/11 05:02:19;;;;;;;;;;;24.40;99.90;;;;;;5054847;28;20307;-67
2022/12/11 05:04:46;;;;;;;;;;;24.30;99.90;;;;;;5044700;28;19960;-70
2022/12/11 05:07:13;;;;;;;;;;;24.20;99.90;;;;;;5040663;28;19913;-71
2022/12/11 05:09:40;;;;;;;;;;;24.20;99.90;;;;;;5054904;28;19986;-72
2022/12/11 05:12:07;;;;;;;;;;;24.20;99.90;;;;;;5053500;28;19916;-70
2022/12/11 05:14:33;;;;;;;;;;;24.30;99.90;;;;;;5052403;28;19921;-70
2022/12/11 05:17:00;;;;;;;;;;;24.30;99.90;;;;;;5054457;28;19932;-70
2022/12/11 05:19:27;;;;;;;;;;;24.30;99.90;;;;;;5053744;28;19912;-70
2022/12/11 05:21:54;;;;;;;;;;;24.30;99.90;;;;;;5054375;28;19915;-72
2022/12/11 05:24:20;;;;;;;;;;;24.50;99.90;;;;;;5054481;28;20314;-70
2022/12/11 05:26:47;;;;;;;;;;;24.60;99.90;;;;;;5052807;28;20346;-71
2022/12/11 05:29:14;;;;;;;;;;;24.40;99.90;;;;;;5053341;28;19982;-70
2022/12/11 05:31:40;;;;;;;;;;;24.50;99.90;;;;;;5054097;28;19979;-72
2022/12/11 05:34:07;;;;;;;;;;;24.50;99.90;;;;;;5053334;28;19917;-68
2022/12/11 05:36:34;;;;;;;;;;;24.50;99.90;;;;;;5053206;28;20364;-68
2022/12/11 05:39:01;;;;;;;;;;;24.40;99.90;;;;;;5053986;28;19915;-71
2022/12/11 05:41:29;;;;;;;;;;;24.30;99.90;;;;;;5052779;28;20283;-67
2022/12/11 05:43:56;;;;;;;;;;;24.20;99.90;;;;;;5053922;28;19913;-67
2022/12/11 05:46:24;;;;;;;;;;;24.10;99.90;;;;;;5053430;28;20346;-65
2022/12/11 05:48:53;;;;;;;;;;;24.10;99.90;;;;;;5053322;28;20047;-67
2022/12/11 05:51:20;;;;;;;;;;;24.20;99.90;;;;;;5052724;28;19958;-66
2022/12/11 05:53:47;;;;;;;;;;;24.30;99.90;;;;;;5041327;28;20335;-67
2022/12/11 05:56:16;;;;;;;;;;;24.30;99.90;;;;;;5053719;28;19917;-66
2022/12/11 05:58:43;;;;;;;;;;;24.40;99.90;;;;;;5052949;28;19922;-66
2022/12/11 06:01:11;;;;;;;;;;;24.40;99.90;;;;;;5054001;28;20012;-65
2022/12/11 06:03:38;;;;;;;;;;;24.40;99.90;;;;;;5043319;28;19920;-66
2022/12/11 06:06:05;;;;;;;;;;;24.40;99.90;;;;;;5045137;28;20433;-65
2022/12/11 06:08:32;;;;;;;;;;;24.30;99.90;;;;;;5042782;28;19913;-66
2022/12/11 06:10:59;;;;;;;;;;;24.20;99.90;;;;;;5051839;28;19913;-66
2022/12/11 06:13:26;;;;;;;;;;;24.10;99.90;;;;;;5023946;28;19917;-67
2022/12/11 06:15:53;;;;;;;;;;;24.00;99.90;;;;;;5053620;28;19956;-67
2022/12/11 06:18:20;;;;;;;;;;;24.00;99.90;;;;;;5052617;28;19971;-66
2022/12/11 06:20:46;;;;;;;;;;;23.80;99.90;;;;;;5053273;28;19923;-67
2022/12/11 06:23:13;;;;;;;;;;;23.80;99.90;;;;;;5052517;28;19952;-69
2022/12/11 06:25:40;;;;;;;;;;;23.80;99.90;;;;;;5053352;28;19909;-69
2022/12/11 06:28:07;;;;;;;;;;;23.80;99.90;;;;;;5052690;28;19920;-70
2022/12/11 06:30:33;;;;;;;;;;;23.80;99.90;;;;;;5053334;28;19908;-70
2022/12/11 06:33:00;;;;;;;;;;;23.70;99.90;;;;;;5051159;28;19928;-70
2022/12/11 06:35:27;;;;;;;;;;;23.60;99.90;;;;;;5035216;28;19925;-69
2022/12/11 06:37:54;;;;;;;;;;;23.60;99.90;;;;;;5052380;28;19913;-67
2022/12/11 06:40:21;;;;;;;;;;;23.60;99.90;;;;;;5053172;28;19909;-71
2022/12/11 06:42:47;;;;;;;;;;;23.50;99.90;;;;;;5051010;28;19917;-71
2022/12/11 06:45:14;;;;;;;;;;;23.40;99.90;;;;;;5053061;28;20390;-69
2022/12/11 06:47:41;;;;;;;;;;;23.40;99.90;;;;;;5052289;28;19913;-70
2022/12/11 06:50:08;;;;;;;;;;;23.40;99.90;;;;;;5052974;28;19967;-70
2022/12/11 06:52:34;;;;;;;;;;;23.40;99.90;;;;;;5049804;28;20904;-67
2022/12/11 06:55:01;;;;;;;;;;;23.40;99.90;;;;;;5032725;28;19916;-65
2022/12/11 06:57:28;;;;;;;;;;;23.40;99.90;;;;;;5033972;28;19921;-65
2022/12/11 06:59:54;;;;;;;;;;;23.40;99.90;;;;;;5051348;28;19913;-64
2022/12/11 07:02:21;;;;;;;;;;;23.30;99.90;;;;;;5052969;28;19980;-65
2022/12/11 07:04:48;;;;;;;;;;;23.30;99.90;;;;;;5051822;28;19908;-66
2022/12/11 07:07:15;;;;;;;;;;;23.30;99.90;;;;;;5054699;28;19919;-64
2022/12/11 07:09:42;;;;;;;;;;;23.40;99.90;;;;;;5057130;28;19983;-64
2022/12/11 07:12:09;;;;;;;;;;;23.40;99.90;;;;;;5055830;28;19947;-65
2022/12/11 07:14:41;;;;;;;;;;;23.40;99.90;;;;;;5053500;28;20054;-66
2022/12/11 07:17:08;;;;;;;;;;;23.30;99.90;;;;;;5054771;28;20304;-64
2022/12/11 07:19:35;;;;;;;;;;;23.30;99.90;;;;;;5056631;28;19920;-65
2022/12/11 07:22:02;;;;;;;;;;;23.20;99.90;;;;;;5055803;28;19954;-67
2022/12/11 07:24:28;;;;;;;;;;;23.20;99.90;;;;;;5054867;28;19935;-66
2022/12/11 07:26:55;;;;;;;;;;;23.10;99.90;;;;;;5056507;28;19913;-68
2022/12/11 07:29:22;;;;;;;;;;;23.10;99.90;;;;;;5056663;28;19963;-68
2022/12/11 07:31:49;;;;;;;;;;;23.10;99.90;;;;;;5056085;28;19916;-68
2022/12/11 07:34:16;;;;;;;;;;;23.00;99.90;;;;;;5056407;28;19915;-68
2022/12/11 07:36:43;;;;;;;;;;;23.00;99.90;;;;;;5054702;28;19925;-68
2022/12/11 07:39:12;;;;;;;;;;;23.00;99.90;;;;;;5054414;28;19966;-66
2022/12/11 07:41:39;;;;;;;;;;;22.90;99.90;;;;;;5055550;28;19962;-66
2022/12/11 07:44:05;;;;;;;;;;;22.90;99.90;;;;;;5056341;28;20367;-68
2022/12/11 07:46:32;;;;;;;;;;;22.90;99.90;;;;;;5055503;28;20241;-67
2022/12/11 07:49:02;;;;;;;;;;;22.80;99.90;;;;;;5055884;28;20356;-66
2022/12/11 07:51:34;;;;;;;;;;;22.80;99.90;;;;;;5055433;28;19912;-64
2022/12/11 07:54:02;;;;;;;;;;;22.80;99.90;;;;;;5055221;28;19913;-65
2022/12/11 07:56:29;;;;;;;;;;;22.70;99.90;;;;;;5056017;28;19971;-64
2022/12/11 07:58:58;;;;;;;;;;;22.70;99.90;;;;;;5055037;28;19963;-65
2022/12/11 08:01:26;;;;;;;;;;;22.70;99.90;;;;;;5055816;28;19912;-65
2022/12/11 08:03:53;;;;;;;;;;;22.60;99.90;;;;;;5055360;28;19919;-65
2022/12/11 08:06:24;;;;;;;;;;;22.60;99.90;;;;;;5056030;28;19962;-64
2022/12/11 08:08:50;;;;;;;;;;;22.60;99.90;;;;;;5053857;28;19913;-63
2022/12/11 08:11:17;;;;;;;;;;;22.50;99.90;;;;;;5055767;28;19920;-64
2022/12/11 08:13:44;;;;;;;;;;;22.50;99.90;;;;;;5055015;28;19913;-64
2022/12/11 08:16:12;;;;;;;;;;;22.40;99.90;;;;;;5055679;28;19917;-65
2022/12/11 08:18:39;;;;;;;;;;;22.40;99.90;;;;;;5054767;28;19913;-64
2022/12/11 08:21:07;;;;;;;;;;;22.40;99.90;;;;;;5054537;28;20012;-66
2022/12/11 08:23:34;;;;;;;;;;;22.40;99.90;;;;;;5055428;28;19963;-65
2022/12/11 08:26:05;;;;;;;;;;;22.40;99.90;;;;;;5054738;28;19909;-64
2022/12/11 08:28:32;;;;;;;;;;;22.40;99.90;;;;;;5054647;28;20280;-64
2022/12/11 08:30:59;;;;;;;;;;;22.40;99.90;;;;;;5055276;28;19909;-64
2022/12/11 08:33:25;;;;;;;;;;;22.30;99.90;;;;;;5053334;28;19913;-63
2022/12/11 08:35:52;;;;;;;;;;;22.30;99.90;;;;;;5055307;28;19913;-64
2022/12/11 08:38:19;;;;;;;;;;;22.30;99.90;;;;;;5054651;28;19920;-65
2022/12/11 08:40:45;;;;;;;;;;;22.30;99.90;;;;;;5055028;28;19909;-64
2022/12/11 08:43:12;;;;;;;;;;;22.30;99.90;;;;;;5054352;28;19920;-65
2022/12/11 08:45:39;;;;;;;;;;;22.30;99.90;;;;;;5054147;28;19920;-66
2022/12/11 08:48:06;;;;;;;;;;;22.30;99.90;;;;;;5055072;28;20271;-66
2022/12/11 08:50:32;;;;;;;;;;;22.30;99.90;;;;;;5052076;28;19916;-65
2022/12/11 08:52:59;;;;;;;;;;;22.40;99.90;;;;;;5034835;28;19956;-66
2022/12/11 08:55:26;;;;;;;;;;;22.40;99.90;;;;;;5035902;28;19909;-66
2022/12/11 08:57:52;;;;;;;;;;;22.40;99.90;;;;;;5054706;28;19921;-65
2022/12/11 09:00:19;;;;;;;;;;;22.40;99.90;;;;;;5053882;28;19913;-64
2022/12/11 09:02:46;;;;;;;;;;;22.40;99.90;;;;;;5053742;28;19917;-66
2022/12/11 09:05:13;;;;;;;;;;;22.40;99.90;;;;;;5054779;28;19913;-65
2022/12/11 09:07:40;;;;;;;;;;;22.40;99.90;;;;;;5053961;28;19923;-65
2022/12/11 09:10:07;;;;;;;;;;;22.40;99.90;;;;;;5054717;28;19908;-69
2022/12/11 09:12:34;;;;;;;;;;;22.40;99.90;;;;;;5046927;28;19917;-65
2022/12/11 09:15:01;;;;;;;;;;;22.40;99.90;;;;;;5045785;28;20284;-64
2022/12/11 09:17:27;;;;;;;;;;;22.40;99.90;;;;;;5043095;28;19925;-64
2022/12/11 09:19:54;;;;;;;;;;;22.40;99.90;;;;;;5025880;28;19919;-65
2022/12/11 09:22:21;;;;;;;;;;;22.40;99.90;;;;;;5026522;28;19921;-65
2022/12/11 09:24:48;;;;;;;;;;;22.40;99.90;;;;;;5044934;28;19957;-66
2022/12/11 09:27:15;;;;;;;;;;;22.40;99.90;;;;;;5044478;28;20434;-65
2022/12/11 09:29:41;;;;;;;;;;;22.40;99.90;;;;;;5044140;28;19923;-66
2022/12/11 09:32:08;;;;;;;;;;;22.30;99.90;;;;;;5045959;28;19913;-69
2022/12/11 09:34:35;;;;;;;;;;;22.30;99.90;;;;;;5044643;28;20014;-72
2022/12/11 09:37:02;;;;;;;;;;;22.40;99.90;;;;;;5045016;28;19939;-66
2022/12/11 09:39:29;;;;;;;;;;;22.30;99.90;;;;;;5044235;28;19959;-66
2022/12/11 09:42:05;;;;;;;;;;;22.30;99.90;;;;;;5044541;28;20068;-65
2022/12/11 09:44:40;;;;;;;;;;;22.30;99.90;;;;;;5044672;28;20375;-66
2022/12/11 09:47:15;;;;;;;;;;;22.30;99.90;;;;;;5045459;28;19913;-65
2022/12/11 09:49:43;;;;;;;;;;;22.30;99.90;;;;;;5042553;28;19931;-65
2022/12/11 09:52:16;;;;;;;;;;;22.30;99.90;;;;;;5044369;28;19916;-67
2022/12/11 09:54:57;;;;;;;;;;;22.30;99.90;;;;;;5044907;28;19931;-67
2022/12/11 09:57:41;;;;;;;;;;;22.30;99.90;;;;;;5044009;28;20041;-65
2022/12/11 10:00:14;;;;;;;;;;;22.30;99.90;;;;;;5044937;28;19947;-65
2022/12/11 10:02:58;;;;;;;;;;;22.30;99.90;;;;;;5043773;28;19919;-65
2022/12/11 10:05:35;;;;;;;;;;;22.30;99.90;;;;;;5044817;28;19963;-65
2022/12/11 10:08:02;;;;;;;;;;;22.30;99.90;;;;;;5044240;28;19952;-65
2022/12/11 10:10:31;;;;;;;;;;;22.30;99.90;;;;;;5045215;28;19916;-65
2022/12/11 10:12:58;;;;;;;;;;;22.30;99.90;;;;;;5043922;28;19913;-65
2022/12/11 10:15:25;;;;;;;;;;;22.30;99.90;;;;;;5044913;28;20547;-66
2022/12/11 10:17:54;;;;;;;;;;;22.30;99.90;;;;;;5043899;28;20390;-65
2022/12/11 10:20:29;;;;;;;;;;;22.30;99.90;;;;;;5044544;28;19917;-66
2022/12/11 10:22:57;;;;;;;;;;;22.30;99.90;;;;;;5043640;28;19952;-65
2022/12/11 10:25:39;;;;;;;;;;;22.30;99.90;;;;;;5044247;28;19921;-65
2022/12/11 10:28:13;;;;;;;;;;;22.30;99.90;;;;;;5043861;28;19912;-66
2022/12/11 10:30:55;;;;;;;;;;;22.30;99.90;;;;;;5044127;28;19970;-64
2022/12/11 10:33:29;;;;;;;;;;;22.30;99.90;;;;;;5043682;28;19924;-64
2022/12/11 10:35:57;;;;;;;;;;;22.20;99.90;;;;;;5043982;28;20251;-68
2022/12/11 10:38:29;;;;;;;;;;;22.30;99.90;;;;;;5043487;28;19920;-68
2022/12/11 10:41:00;;;;;;;;;;;22.20;99.90;;;;;;5044229;28;19916;-67
2022/12/11 10:43:34;;;;;;;;;;;22.20;99.90;;;;;;5043135;28;20351;-66
2022/12/11 10:46:01;;;;;;;;;;;22.20;99.90;;;;;;5044133;28;19917;-67
2022/12/11 10:48:28;;;;;;;;;;;22.10;99.90;;;;;;5043335;28;20015;-66
2022/12/11 10:51:06;;;;;;;;;;;22.10;99.90;;;;;;5043671;28;19916;-65
2022/12/11 10:53:33;;;;;;;;;;;22.10;99.90;;;;;;5042256;28;19912;-67
2022/12/11 10:56:01;;;;;;;;;;;22.10;99.90;;;;;;5043654;28;19976;-65
2022/12/11 10:58:32;;;;;;;;;;;22.10;99.90;;;;;;5028495;28;19929;-65
2022/12/11 11:01:05;;;;;;;;;;;22.10;99.90;;;;;;5043624;28;20019;-64
2022/12/11 11:03:32;;;;;;;;;;;22.00;99.90;;;;;;5033674;28;19927;-65
2022/12/11 11:06:04;;;;;;;;;;;22.00;99.90;;;;;;5043602;28;19913;-65
2022/12/11 11:08:52;;;;;;;;;;;22.00;99.90;;;;;;5043341;28;20035;-65
2022/12/11 11:11:24;;;;;;;;;;;21.90;99.90;;;;;;5043380;28;19912;-66
2022/12/11 11:13:51;;;;;;;;;;;21.90;99.90;;;;;;5043358;28;20443;-65
2022/12/11 11:16:19;;;;;;;;;;;21.90;99.90;;;;;;5043869;28;19921;-67
2022/12/11 11:18:51;;;;;;;;;;;21.90;99.90;;;;;;5042734;28;19924;-65
2022/12/11 11:21:19;;;;;;;;;;;21.90;99.90;;;;;;5043908;28;19993;-68
2022/12/11 11:23:46;;;;;;;;;;;21.90;99.90;;;;;;5042133;28;20070;-67
2022/12/11 11:26:12;;;;;;;;;;;21.90;99.90;;;;;;5044064;28;20004;-65
2022/12/11 11:28:41;;;;;;;;;;;21.90;99.90;;;;;;5043399;28;19952;-65
2022/12/11 11:31:11;;;;;;;;;;;21.80;99.90;;;;;;5042963;28;19930;-65
2022/12/11 11:33:44;;;;;;;;;;;21.90;99.90;;;;;;5042933;28;19975;-65
2022/12/11 11:36:20;;;;;;;;;;;21.80;99.90;;;;;;5043587;28;20334;-65
2022/12/11 11:39:02;;;;;;;;;;;21.90;99.90;;;;;;5042966;28;19952;-65
2022/12/11 11:41:31;;;;;;;;;;;21.90;99.90;;;;;;5044086;28;19917;-65
2022/12/11 11:44:00;;;;;;;;;;;21.90;99.90;;;;;;5043098;28;20365;-66
2022/12/11 11:46:32;;;;;;;;;;;21.90;99.90;;;;;;5044102;28;19923;-66
2022/12/11 11:49:16;;;;;;;;;;;21.90;99.90;;;;;;5042239;28;19917;-66
2022/12/11 11:51:48;;;;;;;;;;;21.80;99.90;;;;;;5044302;28;19932;-67
2022/12/11 11:54:23;;;;;;;;;;;21.90;99.90;;;;;;5046731;28;19969;-68
2022/12/11 11:56:51;;;;;;;;;;;21.90;99.90;;;;;;5046775;28;19973;-66
2022/12/11 11:59:21;;;;;;;;;;;21.90;99.90;;;;;;5046585;28;19917;-66
2022/12/11 12:01:47;;;;;;;;;;;21.90;99.90;;;;;;5046322;28;19921;-67
2022/12/11 12:04:14;;;;;;;;;;;21.90;99.90;;;;;;5047063;28;20027;-66
2022/12/11 12:06:44;;;;;;;;;;;21.90;99.90;;;;;;5046619;28;19917;-65
2022/12/11 12:09:24;;;;;;;;;;;21.90;99.90;;;;;;5045383;28;20580;-65
2022/12/11 12:12:00;;;;;;;;;;;21.90;99.90;;;;;;5047122;28;19920;-65
2022/12/11 12:14:42;;;;;;;;;;;21.90;99.90;;;;;;5046220;28;20001;-65
2022/12/11 12:17:09;;;;;;;;;;;21.90;99.90;;;;;;5046954;28;20431;-64
2022/12/11 12:19:49;;;;;;;;;;;21.90;99.90;;;;;;5045944;28;19948;-66
2022/12/11 12:22:19;;;;;;;;;;;21.90;99.90;;;;;;5046526;28;19913;-65
2022/12/11 12:24:54;;;;;;;;;;;21.90;99.90;;;;;;5046042;28;20556;-65
2022/12/11 12:27:31;;;;;;;;;;;21.90;99.90;;;;;;5046016;28;19913;-65
2022/12/11 12:30:14;;;;;;;;;;;21.90;99.90;;;;;;5047062;28;19986;-65
2022/12/11 12:32:52;;;;;;;;;;;21.90;99.90;;;;;;5046072;28;20323;-67
2022/12/11 12:35:25;;;;;;;;;;;21.90;99.90;;;;;;5046870;28;19971;-64
2022/12/11 12:37:55;;;;;;;;;;;21.90;99.90;;;;;;5045969;28;19935;-65
2022/12/11 12:40:25;;;;;;;;;;;21.90;99.90;;;;;;5045643;28;19986;-65
2022/12/11 12:43:10;;;;;;;;;;;21.90;99.90;;;;;;5046448;28;19917;-65
2022/12/11 12:45:55;;;;;;;;;;;21.90;99.90;;;;;;5047435;28;19924;-65
2022/12/11 12:48:22;;;;;;;;;;;21.90;99.90;;;;;;5054549;28;19912;-65
2022/12/11 12:50:50;;;;;;;;;;;22.00;99.90;;;;;;5055036;28;19942;-65
2022/12/11 12:53:21;;;;;;;;;;;21.90;99.90;;;;;;5054075;28;19916;-65
2022/12/11 12:55:48;;;;;;;;;;;22.00;99.90;;;;;;5054942;28;19925;-64
2022/12/11 12:58:24;;;;;;;;;;;22.00;99.90;;;;;;5054172;28;19921;-64
2022/12/11 13:00:51;;;;;;;;;;;22.10;99.90;;;;;;5054846;28;19988;-65
2022/12/11 13:03:37;;;;;;;;;;;22.10;99.90;;;;;;5052714;28;20290;-64
2022/12/11 13:06:06;;;;;;;;;;;22.10;99.90;;;;;;5055047;28;20004;-65
2022/12/11 13:08:40;;;;;;;;;;;22.10;99.90;;;;;;5053938;28;20000;-65
2022/12/11 13:11:09;;;;;;;;;;;22.10;99.90;;;;;;5054718;28;19959;-66
2022/12/11 13:13:36;;;;;;;;;;;22.10;99.90;;;;;;5054270;28;20007;-64
2022/12/11 13:16:14;;;;;;;;;;;22.10;99.90;;;;;;5054844;28;19921;-66
2022/12/11 13:18:42;;;;;;;;;;;22.10;99.90;;;;;;5052695;28;20386;-65
2022/12/11 13:21:24;;;;;;;;;;;22.10;99.90;;;;;;5054453;28;19909;-65
2022/12/11 13:23:51;;;;;;;;;;;22.20;99.90;;;;;;5053431;28;19913;-65
2022/12/11 13:26:28;;;;;;;;;;;22.10;99.90;;;;;;5054697;28;19913;-65
2022/12/11 13:28:57;;;;;;;;;;;22.20;99.90;;;;;;5053781;28;19913;-64
2022/12/11 13:31:37;;;;;;;;;;;22.40;99.90;;;;;;5054524;28;19909;-66
2022/12/11 13:34:15;;;;;;;;;;;22.40;99.90;;;;;;5053471;28;20348;-65
2022/12/11 13:36:46;;;;;;;;;;;22.40;99.90;;;;;;5053490;28;20007;-64
2022/12/11 13:39:22;;;;;;;;;;;22.40;99.90;;;;;;5054370;28;19908;-64
2022/12/11 13:41:53;;;;;;;;;;;22.30;99.90;;;;;;5053750;28;19923;-66
2022/12/11 13:44:23;;;;;;;;;;;22.30;99.90;;;;;;5054277;28;19955;-66
2022/12/11 13:46:51;;;;;;;;;;;22.30;99.90;;;;;;5052554;28;19913;-65
2022/12/11 13:49:20;;;;;;;;;;;22.30;99.90;;;;;;5047035;28;20287;-65
2022/12/11 13:51:54;;;;;;;;;;;22.30;99.90;;;;;;5034310;28;19913;-66
2022/12/11 13:54:21;;;;;;;;;;;22.30;99.90;;;;;;5047657;28;20406;-65
2022/12/11 13:56:55;;;;;;;;;;;22.30;99.90;;;;;;5053657;28;19968;-67
2022/12/11 13:59:26;;;;;;;;;;;22.40;99.90;;;;;;5052997;28;19916;-65
2022/12/11 14:01:54;;;;;;;;;;;22.30;99.90;;;;;;5053414;28;20004;-65
2022/12/11 14:04:22;;;;;;;;;;;22.30;99.90;;;;;;5053669;28;19913;-65
2022/12/11 14:06:48;;;;;;;;;;;22.30;99.90;;;;;;5053031;28;19917;-66
2022/12/11 14:09:19;;;;;;;;;;;22.30;99.90;;;;;;5053903;28;20445;-65
2022/12/11 14:11:47;;;;;;;;;;;22.30;99.90;;;;;;5053124;28;19912;-66
2022/12/11 14:14:36;;;;;;;;;;;22.30;99.90;;;;;;5052422;28;19912;-65
2022/12/11 14:17:03;;;;;;;;;;;22.30;99.90;;;;;;5045478;28;19967;-66
2022/12/11 14:19:30;;;;;;;;;;;22.30;99.90;;;;;;5052611;28;20368;-65
2022/12/11 14:21:58;;;;;;;;;;;22.30;99.90;;;;;;5053654;28;19909;-66
2022/12/11 14:24:25;;;;;;;;;;;22.30;99.90;;;;;;5052008;28;19920;-64
2022/12/11 14:26:52;;;;;;;;;;;22.30;99.90;;;;;;5052227;28;19912;-65
2022/12/11 14:29:27;;;;;;;;;;;22.30;99.90;;;;;;5053287;28;20295;-66
2022/12/11 14:31:54;;;;;;;;;;;22.30;99.90;;;;;;5053516;28;19916;-64
2022/12/11 14:34:24;;;;;;;;;;;22.30;99.90;;;;;;5052512;28;19917;-66
2022/12/11 14:36:51;;;;;;;;;;;22.30;99.90;;;;;;5053151;28;20351;-66
2022/12/11 14:39:24;;;;;;;;;;;22.30;99.90;;;;;;5052549;28;19943;-64
2022/12/11 14:41:53;;;;;;;;;;;22.40;99.90;;;;;;5052303;28;19967;-66